createdAt,value
2022-10-18T00:02:20.250Z,1.83
2022-10-18T00:04:47.312Z,1.30
2022-10-18T00:07:14.005Z,1.20
2022-10-18T00:09:40.862Z,1.20
2022-10-18T00:12:08.119Z,1.55
2022-10-18T00:14:34.888Z,1.52
2022-10-18T00:17:01.837Z,1.27
2022-10-18T00:19:29.373Z,1.63
2022-10-18T00:21:56.672Z,1.30
2022-10-18T00:24:23.331Z,1.27
2022-10-18T00:26:50.079Z,1.67
2022-10-18T00:29:18.200Z,2.53
2022-10-18T00:31:45.272Z,1.40
2022-10-18T00:34:14.559Z,1.63
2022-10-18T00:36:42.212Z,1.30
2022-10-18T00:39:16.679Z,1.20
2022-10-18T00:41:43.984Z,1.10
2022-10-18T00:44:13.614Z,1.65
2022-10-18T00:46:45.850Z,1.42
2022-10-18T00:49:23.353Z,1.98
2022-10-18T00:51:58.099Z,1.50
2022-10-18T00:54:26.714Z,1.20
2022-10-18T00:56:54.121Z,1.25
2022-10-18T00:59:21.069Z,1.60
2022-10-18T01:01:47.962Z,1.48
2022-10-18T01:04:16.838Z,1.70
2022-10-18T01:06:59.679Z,1.50
2022-10-18T01:09:39.301Z,1.30
2022-10-18T01:12:21.059Z,1.20
2022-10-18T01:14:59.973Z,1.40
2022-10-18T01:18:05.690Z,1.17
2022-10-18T01:20:51.395Z,1.30
2022-10-18T01:23:25.313Z,1.83
2022-10-18T01:25:55.924Z,1.35
2022-10-18T01:28:42.806Z,1.83
2022-10-18T01:31:33.022Z,1.20
2022-10-18T01:34:07.984Z,1.70
2022-10-18T01:36:42.199Z,1.20
2022-10-18T01:39:14.639Z,1.92
2022-10-18T01:41:44.314Z,1.63
2022-10-18T01:44:16.018Z,1.25
2022-10-18T01:46:44.200Z,1.67
2022-10-18T01:49:10.854Z,1.48
2022-10-18T01:51:37.540Z,2.42
2022-10-18T01:54:04.476Z,1.50
2022-10-18T01:56:49.247Z,1.70
2022-10-18T01:59:51.173Z,1.40
2022-10-18T02:02:47.136Z,1.30
2022-10-18T02:05:19.711Z,1.55
2022-10-18T02:08:12.015Z,1.40
2022-10-18T02:10:43.414Z,2.00
2022-10-18T02:13:13.105Z,1.27
2022-10-18T02:15:44.342Z,1.52
2022-10-18T02:18:35.483Z,1.45
2022-10-18T02:21:05.540Z,2.53
2022-10-18T02:23:33.911Z,1.63
2022-10-18T02:26:01.212Z,1.17
2022-10-18T02:28:28.140Z,1.25
2022-10-18T02:31:28.768Z,1.13
2022-10-18T02:33:58.155Z,1.60
2022-10-18T02:36:46.615Z,1.30
2022-10-18T02:39:18.346Z,1.30
2022-10-18T02:41:45.146Z,1.45
2022-10-18T02:44:11.818Z,1.42
2022-10-18T02:46:39.447Z,1.63
2022-10-18T02:49:06.366Z,1.60
2022-10-18T02:51:33.297Z,1.63
2022-10-18T02:54:00.067Z,1.85
2022-10-18T02:56:26.691Z,1.45
2022-10-18T02:58:53.362Z,1.40
2022-10-18T03:01:20.226Z,1.90
2022-10-18T03:03:46.939Z,1.50
2022-10-18T03:06:13.571Z,1.30
2022-10-18T03:08:40.290Z,1.60
2022-10-18T03:11:07.091Z,1.45
2022-10-18T03:13:36.440Z,1.15
2022-10-18T03:18:47.515Z,1.65
2022-10-18T03:21:14.158Z,1.52
2022-10-18T03:23:42.290Z,1.52
2022-10-18T03:26:09.447Z,1.50
2022-10-18T03:28:36.276Z,1.80
2022-10-18T03:31:06.140Z,1.23
2022-10-18T03:33:33.388Z,1.60
2022-10-18T03:36:00.470Z,1.50
2022-10-18T03:38:27.200Z,1.70
2022-10-18T03:40:53.887Z,1.90
2022-10-18T03:43:20.725Z,1.25
2022-10-18T03:45:49.825Z,1.95
2022-10-18T03:48:16.498Z,1.45
2022-10-18T03:50:44.031Z,1.52
2022-10-18T03:53:10.735Z,1.30
2022-10-18T03:55:37.786Z,1.35
2022-10-18T03:58:04.425Z,1.58
2022-10-18T04:00:31.158Z,1.50
2022-10-18T04:02:57.860Z,1.73
2022-10-18T04:05:26.849Z,1.45
2022-10-18T04:07:54.801Z,1.67
2022-10-18T04:10:21.541Z,2.42
2022-10-18T04:12:48.236Z,1.20
2022-10-18T04:15:14.979Z,1.52
2022-10-18T04:17:42.379Z,1.10
2022-10-18T04:20:09.885Z,1.35
2022-10-18T04:22:36.534Z,1.55
2022-10-18T04:25:04.298Z,1.88
2022-10-18T04:27:31.877Z,1.75
2022-10-18T04:29:58.792Z,1.63
2022-10-18T04:32:27.919Z,1.50
2022-10-18T04:34:54.539Z,1.52
2022-10-18T04:37:21.211Z,1.83
2022-10-18T04:39:51.273Z,1.20
2022-10-18T04:42:20.540Z,1.48
2022-10-18T04:44:47.323Z,1.60
2022-10-18T04:47:13.936Z,1.65
2022-10-18T04:49:41.695Z,1.90
2022-10-18T04:52:08.774Z,1.80
2022-10-18T04:54:35.713Z,1.40
2022-10-18T04:57:03.501Z,1.83
2022-10-18T04:59:30.300Z,1.35
2022-10-18T05:01:57.073Z,1.65
2022-10-18T05:04:23.839Z,1.33
2022-10-18T05:06:50.506Z,1.50
2022-10-18T05:09:17.144Z,1.58
2022-10-18T05:11:43.843Z,1.63
2022-10-18T05:14:10.986Z,1.55
2022-10-18T05:16:37.781Z,2.47
2022-10-18T05:19:05.950Z,5.30
2022-10-18T05:21:33.752Z,3.30
2022-10-18T05:24:00.551Z,2.08
2022-10-18T05:26:28.123Z,2.50
2022-10-18T05:28:55.216Z,1.83
2022-10-18T05:31:22.053Z,1.50
2022-10-18T05:33:49.244Z,1.30
2022-10-18T05:36:16.139Z,1.73
2022-10-18T05:38:44.090Z,1.98
2022-10-18T05:41:11.676Z,2.05
2022-10-18T05:43:39.232Z,2.10
2022-10-18T05:46:11.901Z,1.48
2022-10-18T05:48:42.183Z,2.28
2022-10-18T05:51:08.870Z,1.38
2022-10-18T05:53:37.815Z,2.03
2022-10-18T05:56:05.860Z,2.05
2022-10-18T05:58:34.521Z,1.90
2022-10-18T06:01:02.476Z,1.75
2022-10-18T06:03:31.011Z,2.10
2022-10-18T06:06:07.840Z,1.77
2022-10-18T06:08:35.211Z,1.58
2022-10-18T06:11:18.830Z,1.70
2022-10-18T06:13:47.858Z,2.40
2022-10-18T06:16:16.941Z,1.73
2022-10-18T06:18:47.231Z,2.50
2022-10-18T06:21:13.880Z,1.52
2022-10-18T06:23:40.938Z,1.58
2022-10-18T06:26:10.016Z,1.67
2022-10-18T06:28:38.081Z,1.80
2022-10-18T06:31:05.534Z,2.42
2022-10-18T06:33:34.276Z,1.83
2022-10-18T06:36:03.276Z,1.58
2022-10-18T06:38:30.913Z,1.95
2022-10-18T06:41:01.336Z,1.50
2022-10-18T06:43:28.160Z,2.55
2022-10-18T06:45:55.572Z,1.70
2022-10-18T06:48:24.622Z,1.80
2022-10-18T06:50:57.146Z,1.50
2022-10-18T06:53:25.497Z,1.80
2022-10-18T06:55:52.769Z,1.90
2022-10-18T06:58:19.453Z,2.15
2022-10-18T07:00:47.028Z,1.88
2022-10-18T07:03:13.688Z,1.70
2022-10-18T07:05:40.340Z,1.98
2022-10-18T07:08:07.066Z,2.25
2022-10-18T07:10:33.841Z,1.80
2022-10-18T07:13:20.004Z,1.95
2022-10-18T07:15:47.216Z,2.33
2022-10-18T07:18:14.258Z,2.03
2022-10-18T07:20:41.035Z,1.75
2022-10-18T07:23:09.618Z,1.95
2022-10-18T07:25:36.285Z,1.95
2022-10-18T07:28:03.652Z,1.90
2022-10-18T07:30:33.865Z,1.70
2022-10-18T07:33:00.535Z,2.38
2022-10-18T07:35:27.675Z,2.15
2022-10-18T07:37:54.337Z,2.58
2022-10-18T07:40:21.149Z,2.15
2022-10-18T07:42:48.287Z,2.20
2022-10-18T07:45:14.943Z,2.75
2022-10-18T07:47:41.870Z,2.30
2022-10-18T07:50:09.083Z,2.25
2022-10-18T07:52:35.999Z,2.22
2022-10-18T07:55:02.772Z,2.20
2022-10-18T07:57:29.687Z,2.45
2022-10-18T07:59:56.895Z,2.72
2022-10-18T08:02:27.060Z,2.50
2022-10-18T08:04:53.655Z,2.67
2022-10-18T08:07:20.324Z,2.30
2022-10-18T08:09:47.133Z,2.35
2022-10-18T08:12:15.716Z,2.50
2022-10-18T08:14:43.925Z,2.28
2022-10-18T08:17:10.732Z,2.13
2022-10-18T08:19:37.507Z,2.58
2022-10-18T08:22:04.200Z,2.83
2022-10-18T08:24:31.166Z,2.83
2022-10-18T08:26:57.816Z,2.55
2022-10-18T08:29:27.012Z,2.92
2022-10-18T08:31:56.055Z,2.70
2022-10-18T08:34:22.895Z,3.10
2022-10-18T08:36:49.518Z,2.85
2022-10-18T08:39:16.161Z,4.18
2022-10-18T08:42:24.625Z,4.78
2022-10-18T08:44:54.252Z,3.58
2022-10-18T08:47:40.175Z,3.05
2022-10-18T08:50:20.295Z,3.17
2022-10-18T08:53:20.294Z,3.00
2022-10-18T08:55:55.344Z,4.00
2022-10-18T08:58:26.652Z,4.13
2022-10-18T09:01:32.644Z,3.72
2022-10-18T09:04:11.516Z,3.38
2022-10-18T09:06:47.992Z,3.13
2022-10-18T09:09:45.623Z,3.72
2022-10-18T09:12:31.873Z,3.90
2022-10-18T09:15:20.338Z,3.58
2022-10-18T09:18:08.272Z,3.00
2022-10-18T09:20:47.935Z,2.67
2022-10-18T09:23:23.165Z,3.05
2022-10-18T09:26:22.487Z,2.30
2022-10-18T09:29:07.740Z,2.35
2022-10-18T09:31:56.732Z,2.70
2022-10-18T09:34:37.219Z,2.47
2022-10-18T09:37:04.800Z,2.35
2022-10-18T09:39:37.060Z,1.52
2022-10-18T09:42:11.563Z,1.70
2022-10-18T09:44:42.034Z,2.30
2022-10-18T09:47:17.097Z,2.42
2022-10-18T09:49:51.610Z,1.90
2022-10-18T09:52:30.762Z,2.38
2022-10-18T09:55:02.314Z,2.40
2022-10-18T09:57:52.384Z,1.83
2022-10-18T10:00:26.019Z,2.15
2022-10-18T10:02:52.741Z,2.00
2022-10-18T10:05:19.993Z,2.75
2022-10-18T10:07:49.230Z,2.95
2022-10-18T10:10:25.086Z,2.65
2022-10-18T10:13:17.862Z,1.60
2022-10-18T10:15:54.489Z,2.05
2022-10-18T10:18:28.373Z,1.40
2022-10-18T10:21:00.979Z,2.15
2022-10-18T10:23:45.362Z,1.73
2022-10-18T10:26:32.474Z,1.70
2022-10-18T10:29:00.834Z,1.77
2022-10-18T10:31:30.819Z,1.90
2022-10-18T10:34:06.595Z,1.92
2022-10-18T10:36:35.135Z,1.70
2022-10-18T10:39:12.954Z,1.08
2022-10-18T10:41:41.282Z,1.48
2022-10-18T10:44:20.410Z,1.30
2022-10-18T10:46:49.459Z,1.60
2022-10-18T10:52:33.767Z,1.55
2022-10-18T10:55:16.737Z,1.77
2022-10-18T10:57:51.241Z,1.77
2022-10-18T11:00:43.021Z,1.55
2022-10-18T11:03:28.600Z,2.05
2022-10-18T11:05:57.974Z,1.50
2022-10-18T11:08:30.536Z,1.77
2022-10-18T11:11:30.716Z,1.30
2022-10-18T11:14:26.556Z,0.90
2022-10-18T11:17:14.572Z,1.13
2022-10-18T11:20:11.687Z,1.20
2022-10-18T11:23:12.414Z,2.20
2022-10-18T11:26:02.075Z,1.23
2022-10-18T11:29:10.221Z,1.10
2022-10-18T11:34:29.388Z,1.02
2022-10-18T11:37:27.300Z,0.90
2022-10-18T11:40:16.033Z,1.38
2022-10-18T11:43:04.418Z,1.13
2022-10-18T11:46:03.968Z,0.90
2022-10-18T11:48:46.045Z,0.90
2022-10-18T11:51:15.377Z,1.10
2022-10-18T11:54:03.584Z,1.20
2022-10-18T12:04:08.164Z,0.77
2022-10-18T12:06:38.890Z,1.17
2022-10-18T12:09:32.958Z,1.23
2022-10-18T12:12:31.792Z,1.05
2022-10-18T12:15:19.870Z,1.08
2022-10-18T12:17:59.577Z,1.23
2022-10-18T12:20:36.794Z,0.95
2022-10-18T12:23:03.434Z,2.00
2022-10-18T12:25:36.993Z,1.95
2022-10-18T12:28:16.071Z,1.52
2022-10-18T12:30:52.334Z,1.60
2022-10-18T12:33:28.252Z,1.27
2022-10-18T12:36:21.502Z,2.17
2022-10-18T12:38:58.698Z,1.40
2022-10-18T12:41:28.853Z,1.52
2022-10-18T12:44:06.860Z,0.82
2022-10-18T12:46:48.687Z,0.90
2022-10-18T12:49:22.855Z,1.40
2022-10-18T12:52:00.210Z,0.82
2022-10-18T12:54:30.803Z,0.85
2022-10-18T12:56:59.522Z,1.10
2022-10-18T12:59:26.816Z,0.63
2022-10-18T13:01:53.527Z,1.35
2022-10-18T13:04:33.553Z,1.25
2022-10-18T13:07:07.925Z,0.98
2022-10-18T13:09:40.122Z,0.90
2022-10-18T13:12:09.834Z,0.98
2022-10-18T13:15:12.500Z,1.65
2022-10-18T13:17:53.733Z,1.10
2022-10-18T13:20:40.187Z,0.75
2022-10-18T13:23:40.964Z,0.63
2022-10-18T13:26:23.088Z,1.17
2022-10-18T13:29:13.865Z,0.65
2022-10-18T13:32:00.853Z,0.70
2022-10-18T13:34:39.127Z,1.15
2022-10-18T13:37:11.895Z,1.25
2022-10-18T13:39:40.141Z,0.70
2022-10-18T13:42:15.899Z,0.80
2022-10-18T13:44:46.673Z,0.60
2022-10-18T13:47:16.004Z,0.57
2022-10-18T13:49:59.486Z,0.93
2022-10-18T13:52:36.727Z,2.08
2022-10-18T13:55:25.304Z,0.98
2022-10-18T13:58:19.029Z,0.80
2022-10-18T14:01:04.541Z,0.90
2022-10-18T14:04:03.173Z,0.60
2022-10-18T14:06:41.739Z,0.88
2022-10-18T14:09:45.107Z,0.70
2022-10-18T14:12:31.580Z,0.95
2022-10-18T14:15:07.602Z,0.60
2022-10-18T14:17:43.857Z,0.90
2022-10-18T14:20:29.454Z,1.05
2022-10-18T14:23:11.181Z,0.90
2022-10-18T14:25:38.873Z,1.02
2022-10-18T14:28:21.703Z,1.15
2022-10-18T14:31:02.082Z,0.98
2022-10-18T14:33:28.725Z,0.95
2022-10-18T14:36:01.555Z,0.98
2022-10-18T14:38:29.313Z,0.60
2022-10-18T14:41:17.292Z,1.10
2022-10-18T14:43:44.674Z,0.93
2022-10-18T14:46:33.750Z,1.00
2022-10-18T14:49:04.384Z,0.75
2022-10-18T14:51:35.689Z,0.82
2022-10-18T14:54:02.955Z,0.82
2022-10-18T14:56:32.927Z,0.57
2022-10-18T14:59:11.664Z,1.05
2022-10-18T15:01:39.387Z,1.00
2022-10-18T15:04:11.677Z,2.15
2022-10-18T15:06:43.655Z,1.25
2022-10-18T15:09:12.965Z,1.38
2022-10-18T15:11:41.543Z,1.23
2022-10-18T15:14:16.426Z,1.30
2022-10-18T15:16:43.262Z,0.82
2022-10-18T15:19:16.002Z,2.08
2022-10-18T15:22:30.346Z,0.93
2022-10-18T15:25:11.337Z,0.52
2022-10-18T15:27:39.799Z,1.10
2022-10-18T15:30:23.338Z,0.82
2022-10-18T15:32:55.953Z,1.00
2022-10-18T15:35:34.896Z,1.17
2022-10-18T15:38:26.073Z,0.90
2022-10-18T15:40:53.034Z,0.95
2022-10-18T15:43:25.758Z,0.80
2022-10-18T15:46:03.425Z,0.80
2022-10-18T15:48:42.105Z,0.70
2022-10-18T15:51:26.746Z,0.60
2022-10-18T15:53:54.389Z,0.85
2022-10-18T15:56:34.514Z,1.42
2022-10-18T15:59:04.687Z,0.82
2022-10-18T16:01:51.787Z,1.08
2022-10-18T16:04:21.569Z,0.90
2022-10-18T16:06:48.318Z,1.77
2022-10-18T16:09:20.673Z,0.98
2022-10-18T16:11:55.570Z,1.20
2022-10-18T16:14:24.817Z,1.10
2022-10-18T16:16:55.275Z,0.95
2022-10-18T16:19:25.044Z,0.70
2022-10-18T16:21:53.852Z,2.50
2022-10-18T16:24:21.518Z,2.30
2022-10-18T16:26:48.671Z,1.60
2022-10-18T16:29:25.829Z,1.52
2022-10-18T16:31:55.321Z,1.73
2022-10-18T16:34:21.964Z,1.30
2022-10-18T16:36:49.087Z,1.45
2022-10-18T16:39:20.838Z,1.65
2022-10-18T16:41:48.157Z,1.42
2022-10-18T16:44:16.492Z,1.42
2022-10-18T16:46:44.318Z,1.15
2022-10-18T16:51:52.978Z,1.30
2022-10-18T16:54:20.016Z,1.77
2022-10-18T16:56:47.899Z,1.30
2022-10-18T16:59:30.411Z,1.15
2022-10-18T17:01:57.505Z,1.08
2022-10-18T17:04:24.347Z,1.15
2022-10-18T17:06:52.768Z,1.35
2022-10-18T17:09:19.434Z,1.45
2022-10-18T17:11:46.057Z,0.98
2022-10-18T17:14:12.952Z,1.75
2022-10-18T17:16:39.574Z,1.50
2022-10-18T17:19:12.115Z,1.70
2022-10-18T17:21:38.783Z,1.63
2022-10-18T17:24:06.300Z,1.58
2022-10-18T17:26:33.779Z,1.27
2022-10-18T17:29:05.990Z,1.30
2022-10-18T17:31:33.194Z,1.33
2022-10-18T17:34:01.765Z,1.20
2022-10-18T17:36:30.271Z,1.60
2022-10-18T17:38:57.468Z,1.23
2022-10-18T17:41:24.193Z,1.73
2022-10-18T17:43:50.874Z,1.80
2022-10-18T17:46:18.073Z,1.30
2022-10-18T17:48:45.671Z,2.58
2022-10-18T17:51:15.043Z,2.40
2022-10-18T17:53:41.755Z,1.98
2022-10-18T17:56:08.901Z,2.40
2022-10-18T17:58:35.918Z,1.80
2022-10-18T18:01:22.010Z,2.10
2022-10-18T18:03:49.084Z,1.83
2022-10-18T18:06:18.897Z,2.05
2022-10-18T18:08:46.146Z,2.53
2022-10-18T18:11:13.549Z,2.38
2022-10-18T18:13:40.299Z,1.90
2022-10-18T18:16:14.864Z,2.28
2022-10-18T18:18:42.111Z,2.10
2022-10-18T18:21:09.067Z,1.88
2022-10-18T18:23:36.376Z,1.63
2022-10-18T18:26:03.448Z,1.95
2022-10-18T18:28:30.280Z,2.00
2022-10-18T18:30:56.968Z,2.13
2022-10-18T18:33:23.655Z,2.13
2022-10-18T18:35:59.315Z,2.03
2022-10-18T18:38:26.380Z,1.98
2022-10-18T18:41:23.556Z,1.90
2022-10-18T18:43:56.243Z,2.55
2022-10-18T18:46:24.258Z,2.13
2022-10-18T18:48:50.979Z,2.72
2022-10-18T18:51:20.376Z,2.08
2022-10-18T18:53:48.803Z,1.90
2022-10-18T18:56:18.553Z,2.47
2022-10-18T18:58:46.343Z,2.95
2022-10-18T19:01:17.443Z,2.92
2022-10-18T19:03:45.436Z,2.17
2022-10-18T19:06:15.923Z,2.10
2022-10-18T19:08:46.365Z,2.20
2022-10-18T19:11:18.191Z,2.40
2022-10-18T19:13:45.679Z,2.53
2022-10-18T19:16:20.154Z,1.90
2022-10-18T19:19:07.421Z,2.25
2022-10-18T19:21:36.870Z,2.47
2022-10-18T19:24:05.015Z,2.28
2022-10-18T19:26:45.490Z,2.15
2022-10-18T19:29:17.864Z,2.55
2022-10-18T19:31:45.646Z,1.90
2022-10-18T19:34:14.164Z,2.50
2022-10-18T19:36:43.243Z,2.67
2022-10-18T19:39:16.274Z,2.15
2022-10-18T19:41:43.034Z,2.65
2022-10-18T19:44:09.656Z,2.28
2022-10-18T19:46:36.356Z,2.58
2022-10-18T19:49:03.023Z,2.47
2022-10-18T19:51:29.781Z,2.97
2022-10-18T19:53:57.559Z,2.10
2022-10-18T19:56:25.599Z,3.30
2022-10-18T19:58:52.661Z,1.85
2022-10-18T20:01:20.293Z,2.50
2022-10-18T20:03:47.405Z,2.42
2022-10-18T20:06:15.007Z,2.33
2022-10-18T20:11:12.379Z,2.60
2022-10-18T20:13:39.572Z,2.08
2022-10-18T20:16:08.826Z,2.65
2022-10-18T20:18:36.387Z,3.40
2022-10-18T20:21:07.703Z,2.03
2022-10-18T20:23:38.835Z,2.03
2022-10-18T20:26:20.525Z,2.53
2022-10-18T20:28:49.406Z,2.58
2022-10-18T20:31:19.031Z,2.50
2022-10-18T20:33:47.271Z,2.13
2022-10-18T20:36:15.202Z,1.90
2022-10-18T20:38:44.116Z,2.03
2022-10-18T20:41:13.699Z,2.25
2022-10-18T20:43:40.775Z,2.20
2022-10-18T20:46:09.276Z,1.95
2022-10-18T20:48:36.695Z,2.22
2022-10-18T20:51:09.139Z,1.77
2022-10-18T20:53:36.792Z,1.90
2022-10-18T20:56:05.690Z,2.08
2022-10-18T20:58:33.670Z,1.92
2022-10-18T21:01:21.147Z,2.00
2022-10-18T21:03:49.855Z,2.63
2022-10-18T21:06:25.426Z,2.30
2022-10-18T21:09:03.385Z,1.80
2022-10-18T21:11:34.443Z,1.75
2022-10-18T21:14:05.488Z,2.17
2022-10-18T21:16:35.229Z,1.52
2022-10-18T21:19:10.845Z,1.88
2022-10-18T21:21:37.670Z,1.63
2022-10-18T21:24:07.771Z,2.05
2022-10-18T21:26:35.218Z,2.10
2022-10-18T21:29:02.696Z,1.60
2022-10-18T21:31:39.388Z,1.50
2022-10-18T21:34:18.311Z,1.40
2022-10-18T21:36:47.754Z,1.58
2022-10-18T21:39:17.615Z,1.38
2022-10-18T21:41:45.020Z,1.60
2022-10-18T21:44:13.165Z,1.92
2022-10-18T21:46:42.937Z,2.45
2022-10-18T21:49:10.555Z,1.77
2022-10-18T21:51:38.138Z,3.00
2022-10-18T21:54:07.635Z,1.73
2022-10-18T21:56:35.974Z,1.98
2022-10-18T21:59:03.705Z,1.60
2022-10-18T22:01:35.935Z,1.88
2022-10-18T22:04:05.299Z,1.40
2022-10-18T22:09:08.431Z,1.63
2022-10-18T22:11:45.207Z,1.60
2022-10-18T22:14:12.050Z,2.33
2022-10-18T22:16:38.799Z,1.10
2022-10-18T22:19:06.520Z,2.90
2022-10-18T22:21:33.813Z,2.58
2022-10-18T22:24:03.579Z,2.22
2022-10-18T22:26:35.846Z,2.38
2022-10-18T22:29:06.254Z,1.80
2022-10-18T22:31:36.540Z,2.28
2022-10-18T22:34:07.232Z,1.77
2022-10-18T22:36:34.676Z,2.03
2022-10-18T22:39:01.828Z,1.85
2022-10-18T22:41:28.668Z,2.47
2022-10-18T22:43:57.426Z,1.80
2022-10-18T22:46:26.874Z,2.30
2022-10-18T22:48:54.140Z,1.98
2022-10-18T22:51:20.914Z,2.20
2022-10-18T22:53:47.573Z,2.47
2022-10-18T22:56:17.523Z,1.85
2022-10-18T22:58:44.390Z,2.60
2022-10-18T23:01:14.324Z,1.80
2022-10-18T23:03:41.126Z,2.10
2022-10-18T23:06:20.202Z,2.08
2022-10-18T23:08:47.331Z,2.20
2022-10-18T23:11:14.176Z,2.33
2022-10-18T23:13:40.843Z,2.70
2022-10-18T23:16:09.091Z,3.30
2022-10-18T23:18:36.165Z,3.53
2022-10-18T23:21:04.317Z,3.00
2022-10-18T23:23:34.905Z,3.08
2022-10-18T23:26:06.836Z,2.97
2022-10-18T23:28:35.897Z,4.65
2022-10-18T23:31:23.477Z,3.83
2022-10-18T23:33:52.577Z,4.30
2022-10-18T23:36:20.036Z,5.18
2022-10-18T23:38:46.790Z,4.70
2022-10-18T23:41:15.088Z,4.75
2022-10-18T23:43:42.707Z,3.08
2022-10-18T23:46:10.134Z,4.88
2022-10-18T23:48:37.020Z,3.65
2022-10-18T23:51:04.209Z,4.38
2022-10-18T23:53:31.678Z,5.75
2022-10-18T23:56:00.932Z,4.80
2022-10-18T23:58:28.719Z,3.42
